CFG239 EDDH-EDDF
Flight info
| Callsign | CFG239 |
|---|---|
| Flight time | N/A |
| Altitude | 30000 |
| Route | AMLUH2G/33 AMLUH M852 DENIX DCT RIMET/N0440F310 T157 KOKEB/N0393F230 T157 KERAX KERAX5A |
| Aircraft | A320/M-SDE3FGHIRWY/LB1 |
Departure
| Time | 2026-04-23 16:55 |
|---|---|
| Airport | Hamburg Helmut Schmidt Airport (EDDH) |
Arrival
| Time | N/A |
|---|---|
| Airport | Frankfurt Main Airport (EDDF) |
| Time | Latitude | Longitude | Altitude | Speed | Heading |
|---|---|---|---|---|---|
| 2026-04-23 16:42 | 53.62948 | 10.00267 | 48 ft | 0 kts | 122° |
| 2026-04-23 16:50 | 53.62954 | 10.00252 | 47 ft | 4 kts | 122° |
| 2026-04-23 16:51 | 53.62969 | 10.00213 | 46 ft | 4 kts | 123° |
| 2026-04-23 16:51 | 53.62984 | 10.00175 | 49 ft | 4 kts | 127° |
| 2026-04-23 16:51 | 53.63001 | 10.00143 | 49 ft | 4 kts | 150° |
| 2026-04-23 16:51 | 53.63018 | 10.00135 | 51 ft | 1 kts | 212° |
| 2026-04-23 16:53 | 53.62959 | 10.00071 | 50 ft | 14 kts | 215° |
| 2026-04-23 16:54 | 53.62906 | 9.99956 | 51 ft | 11 kts | 242° |
| 2026-04-23 16:54 | 53.62883 | 9.99881 | 51 ft | 7 kts | 243° |
| 2026-04-23 16:54 | 53.62864 | 9.99771 | 53 ft | 10 kts | 282° |
| 2026-04-23 16:54 | 53.62932 | 9.99689 | 53 ft | 28 kts | 330° |
| 2026-04-23 16:55 | 53.63353 | 9.99321 | 53 ft | 102 kts | 333° |
| 2026-04-23 16:55 | 53.64152 | 9.98619 | 51 ft | 155 kts | 332° |
| 2026-04-23 16:55 | 53.65118 | 9.97777 | 592 ft | 154 kts | 333° |
| 2026-04-23 16:55 | 53.66080 | 9.96969 | 1195 ft | 158 kts | 333° |
| 2026-04-23 16:56 | 53.67070 | 9.96097 | 1671 ft | 164 kts | 330° |
| 2026-04-23 16:56 | 53.68101 | 9.95157 | 2162 ft | 173 kts | 337° |
| 2026-04-23 16:56 | 53.68882 | 9.94814 | 2500 ft | 179 kts | 355° |
| 2026-04-23 16:56 | 53.70644 | 9.94966 | 2972 ft | 205 kts | 0° |
| 2026-04-23 16:57 | 53.72128 | 9.95101 | 3452 ft | 220 kts | 15° |
| 2026-04-23 16:57 | 53.73417 | 9.96459 | 4148 ft | 225 kts | 53° |
| 2026-04-23 16:57 | 53.73982 | 9.98860 | 4875 ft | 227 kts | 82° |
| 2026-04-23 16:57 | 53.74171 | 10.01516 | 5640 ft | 230 kts | 90° |
| 2026-04-23 16:58 | 53.73936 | 10.04199 | 6310 ft | 238 kts | 109° |
| 2026-04-23 16:58 | 53.73166 | 10.06819 | 6659 ft | 262 kts | 121° |
| 2026-04-23 16:58 | 53.72223 | 10.09569 | 7198 ft | 276 kts | 120° |
| 2026-04-23 16:58 | 53.71259 | 10.12413 | 7997 ft | 281 kts | 120° |
| 2026-04-23 16:59 | 53.70286 | 10.15297 | 8812 ft | 285 kts | 120° |
| 2026-04-23 16:59 | 53.69173 | 10.18082 | 9609 ft | 288 kts | 132° |
| 2026-04-23 16:59 | 53.67656 | 10.20310 | 10332 ft | 295 kts | 147° |
| 2026-04-23 16:59 | 53.65738 | 10.21848 | 10569 ft | 318 kts | 164° |
| 2026-04-23 17:00 | 53.63531 | 10.22859 | 10900 ft | 336 kts | 165° |
| 2026-04-23 17:00 | 53.61248 | 10.23888 | 11545 ft | 343 kts | 165° |
| 2026-04-23 17:00 | 53.58930 | 10.24936 | 12265 ft | 347 kts | 165° |
| 2026-04-23 17:00 | 53.56585 | 10.25989 | 12973 ft | 350 kts | 165° |
| 2026-04-23 17:01 | 53.54217 | 10.27061 | 13654 ft | 354 kts | 165° |
| 2026-04-23 17:01 | 53.51825 | 10.28147 | 14325 ft | 358 kts | 165° |
| 2026-04-23 17:01 | 53.49412 | 10.29242 | 14973 ft | 361 kts | 165° |
| 2026-04-23 17:01 | 53.46975 | 10.30350 | 15602 ft | 365 kts | 165° |
| 2026-04-23 17:02 | 53.45346 | 10.31091 | 16013 ft | 367 kts | 165° |
| 2026-04-23 17:02 | 53.42031 | 10.32599 | 16827 ft | 371 kts | 165° |
| 2026-04-23 17:02 | 53.40374 | 10.33350 | 17216 ft | 374 kts | 165° |
| 2026-04-23 17:02 | 53.37854 | 10.34488 | 17801 ft | 377 kts | 165° |
| 2026-04-23 17:03 | 53.35312 | 10.35633 | 18373 ft | 380 kts | 165° |
| 2026-04-23 17:03 | 53.32743 | 10.36791 | 18934 ft | 383 kts | 165° |
| 2026-04-23 17:03 | 53.30160 | 10.37954 | 19490 ft | 386 kts | 165° |
| 2026-04-23 17:03 | 53.27551 | 10.39126 | 20040 ft | 390 kts | 165° |
| 2026-04-23 17:04 | 53.24923 | 10.40300 | 20583 ft | 393 kts | 165° |
| 2026-04-23 17:04 | 53.22271 | 10.41486 | 21105 ft | 396 kts | 165° |
| 2026-04-23 17:04 | 53.19599 | 10.42680 | 21628 ft | 399 kts | 165° |
| 2026-04-23 17:04 | 53.16911 | 10.43881 | 22118 ft | 402 kts | 165° |
| 2026-04-23 17:05 | 53.14182 | 10.44985 | 22596 ft | 405 kts | 171° |
| 2026-04-23 17:05 | 53.11371 | 10.45405 | 23055 ft | 407 kts | 180° |
| 2026-04-23 17:05 | 53.08533 | 10.45111 | 23498 ft | 410 kts | 185° |
| 2026-04-23 17:05 | 53.05680 | 10.44705 | 23931 ft | 413 kts | 185° |
| 2026-04-23 17:06 | 53.02807 | 10.44301 | 24355 ft | 416 kts | 185° |
| 2026-04-23 17:06 | 52.99916 | 10.43903 | 24763 ft | 418 kts | 185° |
| 2026-04-23 17:06 | 52.97005 | 10.43504 | 25154 ft | 421 kts | 185° |
| 2026-04-23 17:06 | 52.94083 | 10.43105 | 25530 ft | 423 kts | 185° |
| 2026-04-23 17:07 | 52.91138 | 10.42705 | 25895 ft | 426 kts | 185° |
| 2026-04-23 17:07 | 52.88182 | 10.42304 | 26254 ft | 428 kts | 185° |
| 2026-04-23 17:07 | 52.85203 | 10.41900 | 26602 ft | 430 kts | 185° |
| 2026-04-23 17:07 | 52.82212 | 10.41494 | 26943 ft | 433 kts | 185° |
| 2026-04-23 17:08 | 52.79204 | 10.41086 | 27272 ft | 435 kts | 185° |
| 2026-04-23 17:08 | 52.76181 | 10.40679 | 27599 ft | 437 kts | 185° |
| 2026-04-23 17:08 | 52.73141 | 10.40268 | 27927 ft | 439 kts | 185° |
| 2026-04-23 17:08 | 52.70131 | 10.39859 | 28227 ft | 441 kts | 185° |
| 2026-04-23 17:09 | 52.67064 | 10.39441 | 28515 ft | 443 kts | 185° |
| 2026-04-23 17:09 | 52.63984 | 10.39025 | 28815 ft | 445 kts | 185° |
| 2026-04-23 17:09 | 52.60894 | 10.38608 | 29095 ft | 447 kts | 185° |
| 2026-04-23 17:09 | 52.57786 | 10.38190 | 29365 ft | 449 kts | 185° |
| 2026-04-23 17:10 | 52.54667 | 10.37775 | 29628 ft | 451 kts | 185° |
| 2026-04-23 17:10 | 52.51534 | 10.37358 | 29876 ft | 452 kts | 185° |
| 2026-04-23 17:10 | 52.48399 | 10.36938 | 29988 ft | 450 kts | 185° |
| 2026-04-23 17:10 | 52.45321 | 10.36527 | 30011 ft | 440 kts | 185° |
| 2026-04-23 17:11 | 52.39268 | 10.35721 | 30006 ft | 434 kts | 185° |
| 2026-04-23 17:11 | 52.33245 | 10.34922 | 30006 ft | 434 kts | 185° |
| 2026-04-23 17:12 | 52.27234 | 10.34117 | 30006 ft | 434 kts | 185° |
| 2026-04-23 17:12 | 52.21213 | 10.33314 | 30014 ft | 434 kts | 185° |
| 2026-04-23 17:13 | 52.15194 | 10.32527 | 30005 ft | 434 kts | 185° |
| 2026-04-23 17:13 | 52.09174 | 10.31746 | 30016 ft | 434 kts | 185° |
| 2026-04-23 17:14 | 52.03158 | 10.30948 | 30001 ft | 434 kts | 185° |
| 2026-04-23 17:14 | 51.97179 | 10.30156 | 29999 ft | 434 kts | 185° |
| 2026-04-23 17:15 | 51.91155 | 10.29376 | 29997 ft | 434 kts | 185° |
| 2026-04-23 17:15 | 51.85130 | 10.28592 | 29996 ft | 435 kts | 185° |